Time;durP1;ratioP1;P1;durP2;ratioP2;P2;SDS_P1;SDS_P2;PMS_P1;PMS_P2;Temp;Humidity;BMP_temperature;BMP_pressure;BME280_temperature;BME280_humidity;BME280_pressure;Samples;Min_cycle;Max_cycle;Signal;HPM_P1;HPM_P2
2024/01/20 00:00:17;;;;;;;69.93;32.97;;;;;;;-2.18;100.00;102656.94;5032677;28;20040;-81
2024/01/20 00:02:43;;;;;;;68.53;31.52;;;;;;;-2.98;100.00;102512.94;5030973;28;20068;-83
2024/01/20 00:05:09;;;;;;;64.07;31.35;;;;;;;-2.12;100.00;102652.00;5032711;28;20140;-81
2024/01/20 00:07:35;;;;;;;62.30;29.88;;;;;;;-2.24;100.00;102635.75;5032779;28;20416;-82
2024/01/20 00:10:00;;;;;;;63.17;30.75;;;;;;;-2.61;100.00;102585.31;5032552;28;20125;-83
2024/01/20 00:12:30;;;;;;;63.22;29.05;;;;;;;-2.09;100.00;102656.28;5032128;28;20038;-81
2024/01/20 00:14:55;;;;;;;58.85;29.38;;;;;;;-2.10;100.00;102655.41;5032361;28;20068;-82
2024/01/20 00:17:21;;;;;;;60.22;29.25;;;;;;;-2.21;100.00;102651.84;5032333;28;20029;-82
2024/01/20 00:19:46;;;;;;;64.25;33.53;;;;;;;-3.24;100.00;102463.59;5031387;28;20021;-80
2024/01/20 00:22:11;;;;;;;62.00;30.27;;;;;;;-2.06;100.00;102667.34;5032512;28;20530;-82
2024/01/20 00:24:37;;;;;;;56.00;27.02;;;;;;;-2.05;100.00;102671.56;5032483;28;20033;-81
2024/01/20 00:27:02;;;;;;;61.97;29.02;;;;;;;-2.16;100.00;102657.84;5047260;28;20045;-82
2024/01/20 00:29:27;;;;;;;56.10;28.20;;;;;;;-2.02;100.00;102669.06;5052095;28;20491;-81
2024/01/20 00:31:53;;;;;;;57.75;29.48;;;;;;;-2.42;100.00;102600.84;5052119;28;20112;-81
2024/01/20 00:34:18;;;;;;;50.17;25.20;;;;;;;-2.29;100.00;102615.41;5052250;28;20110;-82
2024/01/20 00:36:43;;;;;;;56.60;27.75;;;;;;;-2.00;100.00;102646.31;5051344;28;20025;-81
2024/01/20 00:39:09;;;;;;;57.22;27.38;;;;;;;-2.02;100.00;102653.03;5034370;28;20387;-82
2024/01/20 00:41:35;;;;;;;55.05;25.50;;;;;;;-2.06;100.00;102654.66;5052378;28;20507;-81
2024/01/20 00:44:00;;;;;;;52.33;25.60;;;;;;;-2.62;100.00;102570.97;5053420;28;20050;-81
2024/01/20 00:46:25;;;;;;;55.78;25.98;;;;;;;-2.60;100.00;102579.41;5056474;28;20091;-81
2024/01/20 00:48:51;;;;;;;53.60;26.30;;;;;;;-2.20;100.00;102651.00;5056193;28;20029;-81
2024/01/20 00:51:16;;;;;;;54.38;27.38;;;;;;;-2.41;100.00;102618.56;5056296;28;20017;-81
2024/01/20 00:53:42;;;;;;;56.13;25.50;;;;;;;-2.30;100.00;102631.41;5035724;23;20504;-81
2024/01/20 00:56:07;;;;;;;53.42;26.30;;;;;;;-2.73;100.00;102562.31;5016464;28;20026;-81
2024/01/20 00:58:32;;;;;;;57.20;26.60;;;;;;;-2.29;100.00;102634.81;5016247;28;20030;-81
2024/01/20 01:00:58;;;;;;;57.53;25.80;;;;;;;-2.46;100.00;102599.06;5016468;28;20032;-81
2024/01/20 01:03:23;;;;;;;54.88;26.05;;;;;;;-2.51;100.00;102603.19;5016578;28;20041;-81
2024/01/20 01:05:49;;;;;;;53.05;25.70;;;;;;;-2.26;100.00;102658.50;4998724;28;20042;-82
2024/01/20 01:08:14;;;;;;;50.55;25.08;;;;;;;-2.51;100.00;102618.38;5016321;28;20037;-80
2024/01/20 01:10:39;;;;;;;54.30;26.27;;;;;;;-2.46;100.00;102639.53;5016596;28;20092;-81
2024/01/20 01:13:05;;;;;;;49.60;23.58;;;;;;;-2.34;100.00;102663.41;5016053;28;20030;-81
2024/01/20 01:15:32;;;;;;;53.38;25.50;;;;;;;-2.58;100.00;102616.53;5016163;28;20025;-79
2024/01/20 01:17:57;;;;;;;51.53;26.00;;;;;;;-2.70;100.00;102586.81;5015833;28;20029;-79
2024/01/20 01:20:22;;;;;;;48.97;24.40;;;;;;;-2.27;100.00;102656.78;5015909;28;20022;-79
2024/01/20 01:22:50;;;;;;;61.67;26.75;;;;;;;-2.75;100.00;102578.25;5015827;28;20030;-81
2024/01/20 01:25:16;;;;;;;50.95;24.80;;;;;;;-2.27;100.00;102669.44;5014855;28;20034;-79
2024/01/20 01:27:41;;;;;;;52.97;24.60;;;;;;;-2.28;100.00;102664.34;5015778;28;20469;-80
2024/01/20 01:30:07;;;;;;;53.47;25.75;;;;;;;-2.51;100.00;102628.47;5016004;28;20025;-80
2024/01/20 01:32:33;;;;;;;56.60;25.10;;;;;;;-2.30;100.00;102669.38;5013998;28;20061;-80
2024/01/20 01:35:10;;;;;;;54.47;24.80;;;;;;;-2.32;100.00;102664.28;5015514;28;20026;-81
2024/01/20 01:37:36;;;;;;;54.95;25.70;;;;;;;-3.70;100.00;102434.00;5015654;28;20176;-83
2024/01/20 01:40:04;;;;;;;61.92;27.00;;;;;;;-2.32;100.00;102673.56;5014385;28;20105;-80
2024/01/20 01:42:29;;;;;;;58.25;25.40;;;;;;;-2.62;100.00;102630.81;5015409;28;20037;-82
2024/01/20 01:44:55;;;;;;;52.00;25.77;;;;;;;-2.57;100.00;102646.06;5015525;28;20026;-80
2024/01/20 01:47:21;;;;;;;52.20;24.60;;;;;;;-2.60;100.00;102644.31;5015547;28;20030;-81
2024/01/20 01:49:46;;;;;;;59.22;26.92;;;;;;;-2.42;100.00;102677.59;5015205;28;20022;-83
2024/01/20 01:52:12;;;;;;;55.35;26.30;;;;;;;-2.47;100.00;102676.63;5015287;28;20061;-83
2024/01/20 01:54:38;;;;;;;58.00;26.38;;;;;;;-2.92;100.00;102615.84;5022586;28;20132;-80
2024/01/20 01:57:05;;;;;;;55.55;25.33;;;;;;;-2.55;100.00;102685.75;5014353;28;20029;-83
2024/01/20 01:59:31;;;;;;;57.92;26.08;;;;;;;-2.93;100.00;102630.16;5029948;28;20038;-83
2024/01/20 02:01:57;;;;;;;55.45;25.65;;;;;;;-2.90;100.00;102631.91;5015214;28;20062;-83
2024/01/20 02:04:22;;;;;;;53.50;26.15;;;;;;;-2.54;100.00;102694.19;5015094;28;20057;-81
2024/01/20 02:06:47;;;;;;;61.13;28.23;;;;;;;-2.64;100.00;102688.09;5015154;28;20049;-83
2024/01/20 02:09:13;;;;;;;54.35;25.42;;;;;;;-2.55;100.00;102700.06;5013896;28;20040;-82
2024/01/20 02:11:39;;;;;;;55.72;27.15;;;;;;;-2.68;100.00;102692.22;5015152;28;20033;-82
2024/01/20 02:14:05;;;;;;;54.83;27.42;;;;;;;-2.63;100.00;102708.34;5014902;28;20026;-80
2024/01/20 02:16:30;;;;;;;56.63;25.23;;;;;;;-2.80;100.00;102689.41;5014941;28;20101;-80
2024/01/20 02:19:05;;;;;;;56.38;26.05;;;;;;;-2.69;100.00;102712.41;5014818;28;20065;-81
2024/01/20 02:21:32;;;;;;;54.22;25.00;;;;;;;-2.88;100.00;102693.44;5014864;28;20034;-80
2024/01/20 02:24:01;;;;;;;55.38;26.45;;;;;;;-2.77;100.00;102712.22;5014947;28;20030;-81
2024/01/20 02:26:28;;;;;;;54.88;26.13;;;;;;;-2.97;100.00;102688.19;5015012;28;20152;-81
2024/01/20 02:28:54;;;;;;;54.78;25.75;;;;;;;-2.74;100.00;102714.84;5014835;28;20488;-81
2024/01/20 02:31:19;;;;;;;66.25;28.75;;;;;;;-2.70;100.00;102723.34;5014308;28;20060;-80
2024/01/20 02:33:44;;;;;;;58.85;26.73;;;;;;;-2.70;100.00;102713.22;5014782;28;20470;-81
2024/01/20 02:36:09;;;;;;;55.78;27.60;;;;;;;-2.93;100.00;102674.81;5014660;28;20038;-82
2024/01/20 02:38:36;;;;;;;54.22;26.58;;;;;;;-2.74;100.00;102711.47;5014923;28;20033;-82
2024/01/20 02:41:01;;;;;;;54.90;25.88;;;;;;;-2.76;100.00;102706.34;5014766;28;20033;-82
2024/01/20 02:43:27;;;;;;;54.70;24.90;;;;;;;-2.80;100.00;102707.13;5029335;28;20037;-82
2024/01/20 02:45:52;;;;;;;55.22;26.85;;;;;;;-2.82;100.00;102708.75;5014641;28;20038;-81
2024/01/20 02:48:18;;;;;;;58.88;27.35;;;;;;;-2.83;100.00;102699.47;5014654;28;20058;-83
2024/01/20 02:50:43;;;;;;;61.72;28.02;;;;;;;-3.22;100.00;102647.22;5014415;28;20049;-82
2024/01/20 02:53:08;;;;;;;62.20;28.10;;;;;;;-2.82;100.00;102711.28;5014226;28;20030;-81
2024/01/20 02:55:34;;;;;;;58.83;27.33;;;;;;;-2.83;100.00;102704.53;5031857;28;20550;-83
2024/01/20 02:57:59;;;;;;;57.80;27.63;;;;;;;-2.83;100.00;102707.06;5034094;28;20036;-81
2024/01/20 03:00:25;;;;;;;57.15;25.95;;;;;;;-2.96;100.00;102690.75;5033826;28;20030;-81
2024/01/20 03:02:50;;;;;;;58.90;26.67;;;;;;;-3.36;100.00;102630.00;5033845;28;20461;-82
2024/01/20 03:05:16;;;;;;;56.33;25.67;;;;;;;-2.97;100.00;102709.25;5032607;28;20120;-82
2024/01/20 03:07:41;;;;;;;51.55;25.00;;;;;;;-3.17;100.00;102681.00;5033582;28;20029;-80
2024/01/20 03:10:08;;;;;;;56.80;26.30;;;;;;;-2.98;100.00;102712.59;5033871;28;20029;-82
2024/01/20 03:12:34;;;;;;;62.13;26.77;;;;;;;-2.94;100.00;102721.97;5033655;28;20621;-83
2024/01/20 03:14:59;;;;;;;61.70;28.50;;;;;;;-2.87;100.00;102722.97;5033473;28;20065;-82
2024/01/20 03:17:25;;;;;;;64.70;28.98;;;;;;;-2.80;100.00;102734.06;5032080;28;20040;-82
2024/01/20 03:19:50;;;;;;;55.50;27.00;;;;;;;-2.70;100.00;102731.78;5033581;28;20079;-81
2024/01/20 03:22:15;;;;;;;58.22;27.65;;;;;;;-3.24;100.00;102635.38;5044822;23;20049;-86
2024/01/20 03:24:41;;;;;;;56.97;27.23;;;;;;;-2.56;100.00;102733.75;5033713;28;20033;-86
2024/01/20 03:27:07;;;;;;;58.33;27.25;;;;;;;-2.52;100.00;102735.53;5015881;28;20049;-82
2024/01/20 03:29:41;;;;;;;57.88;29.30;;;;;;;-2.43;100.00;102730.69;5030090;28;20037;-85
2024/01/20 03:32:07;;;;;;;52.55;25.45;;;;;;;-2.45;100.00;102717.16;5033557;28;20388;-86
2024/01/20 03:34:41;;;;;;;57.85;27.02;;;;;;;-2.46;100.00;102711.25;5033364;28;20029;-82
2024/01/20 03:37:19;;;;;;;54.30;25.15;;;;;;;-2.90;100.00;102649.59;5033256;28;20164;-82
2024/01/20 03:40:02;;;;;;;50.03;23.63;;;;;;;-3.63;100.00;102516.63;5033359;28;20376;-85
2024/01/20 03:42:28;;;;;;;51.47;23.77;;;;;;;-2.35;100.00;102736.75;5032930;28;20029;-83
2024/01/20 03:45:03;;;;;;;48.97;24.25;;;;;;;-2.37;100.00;102741.75;5033130;28;20549;-85
2024/01/20 03:47:29;;;;;;;46.40;22.80;;;;;;;-3.50;100.00;102559.00;5033166;28;20029;-84
2024/01/20 03:49:54;;;;;;;53.78;23.98;;;;;;;-2.60;100.00;102707.56;5033032;28;20095;-85
2024/01/20 03:52:25;;;;;;;49.72;23.92;;;;;;;-2.36;100.00;102733.38;5033147;28;20030;-85
2024/01/20 03:54:56;;;;;;;51.73;24.67;;;;;;;-2.26;100.00;102734.41;5033062;28;20137;-81
2024/01/20 03:57:22;;;;;;;48.45;24.48;;;;;;;-2.33;100.00;102723.31;5033164;28;20052;-86
2024/01/20 03:59:48;;;;;;;48.55;23.92;;;;;;;-2.26;100.00;102731.88;5085990;23;20053;-83
2024/01/20 04:02:23;;;;;;;53.90;25.35;;;;;;;-3.49;100.00;102525.34;5047717;23;20064;-83
2024/01/20 04:04:48;;;;;;;45.58;24.17;;;;;;;-2.47;100.00;102693.47;5035017;28;20036;-84
2024/01/20 04:07:24;;;;;;;48.30;23.77;;;;;;;-2.24;100.00;102740.38;5053096;28;20013;-83
2024/01/20 04:09:49;;;;;;;50.95;25.90;;;;;;;-2.31;100.00;102723.34;5034275;28;20037;-85
2024/01/20 04:12:14;;;;;;;49.80;23.17;;;;;;;-2.50;100.00;102693.41;5052763;28;20032;-82
2024/01/20 04:14:40;;;;;;;48.22;24.55;;;;;;;-2.34;100.00;102735.94;5052482;28;20424;-83
2024/01/20 04:17:07;;;;;;;44.40;23.42;;;;;;;-2.94;100.00;102640.25;5052888;28;20082;-82
2024/01/20 04:19:33;;;;;;;48.15;23.95;;;;;;;-2.90;100.00;102650.44;5051929;28;20033;-83
2024/01/20 04:21:58;;;;;;;48.42;25.27;;;;;;;-2.28;100.00;102745.31;5052614;28;20021;-82
2024/01/20 04:24:23;;;;;;;47.88;24.10;;;;;;;-2.27;100.00;102747.88;5052580;28;20052;-83
2024/01/20 04:26:49;;;;;;;51.03;24.95;;;;;;;-2.26;100.00;102751.25;5052694;28;20491;-81
2024/01/20 04:29:17;;;;;;;52.22;24.17;;;;;;;-2.24;100.00;102760.59;5052486;28;20025;-82
2024/01/20 04:31:42;;;;;;;47.13;24.27;;;;;;;-2.22;100.00;102760.63;5052156;28;20017;-82
2024/01/20 04:34:07;;;;;;;46.75;22.92;;;;;;;-2.46;100.00;102713.78;5052586;28;20025;-82
2024/01/20 04:36:33;;;;;;;53.90;25.33;;;;;;;-3.02;100.00;102616.47;5052730;28;20025;-82
2024/01/20 04:38:58;;;;;;;48.17;22.85;;;;;;;-2.74;100.00;102659.22;5052276;28;20091;-81
2024/01/20 04:41:36;;;;;;;45.10;23.30;;;;;;;-2.16;100.00;102765.84;5052516;28;20035;-82
2024/01/20 04:44:10;;;;;;;45.80;23.38;;;;;;;-2.14;100.00;102764.19;5052416;28;20021;-81
2024/01/20 04:46:38;;;;;;;42.72;22.58;;;;;;;-2.14;100.00;102762.50;5052521;28;20896;-83
2024/01/20 04:49:11;;;;;;;41.53;22.30;;;;;;;-2.16;100.00;102766.69;5052166;28;20080;-82
2024/01/20 04:51:37;;;;;;;49.00;23.98;;;;;;;-2.11;100.00;102766.75;5052193;28;20113;-82
2024/01/20 04:54:02;;;;;;;49.25;25.65;;;;;;;-2.72;100.00;102664.31;5052337;28;20056;-81
2024/01/20 04:56:30;;;;;;;44.65;23.00;;;;;;;-2.38;100.00;102716.44;5052441;28;20104;-81
2024/01/20 04:58:56;;;;;;;43.63;22.60;;;;;;;-2.56;100.00;102683.16;5052140;28;20025;-82
2024/01/20 05:01:25;;;;;;;43.50;23.02;;;;;;;-2.28;100.00;102733.50;5051962;28;20017;-85
2024/01/20 05:03:50;;;;;;;43.40;22.52;;;;;;;-2.22;100.00;102742.91;5052061;28;20147;-84
2024/01/20 05:06:15;;;;;;;45.22;22.75;;;;;;;-2.04;100.00;102768.59;5052284;28;20100;-84
2024/01/20 05:08:41;;;;;;;41.50;22.92;;;;;;;-2.05;100.00;102761.84;5051734;28;20496;-82
2024/01/20 05:11:06;;;;;;;48.05;23.77;;;;;;;-2.28;100.00;102732.66;5052146;28;20028;-81
2024/01/20 05:13:58;;;;;;;45.40;23.38;;;;;;;-2.09;100.00;102768.50;5051698;28;20087;-81
2024/01/20 05:16:25;;;;;;;;;;;;;;;-2.10;100.00;102778.59;5052573;28;20078;-81
2024/01/20 05:19:08;;;;;;;48.08;23.00;;;;;;;-2.14;100.00;102781.91;5051881;28;19931;-83
2024/01/20 05:22:04;;;;;;;;;;;;;;;;;;;;;
2024/01/20 05:24:43;;;;;;;45.40;22.20;;;;;;;-3.11;100.00;102636.50;5051173;28;20047;-84
2024/01/20 05:27:17;;;;;;;45.97;22.23;;;;;;;-3.53;100.00;102567.34;5052076;28;20032;-82
2024/01/20 05:29:45;;;;;;;42.60;21.92;;;;;;;-3.54;100.00;102559.72;5052630;28;20032;-85
2024/01/20 05:32:11;;;;;;;43.35;21.25;;;;;;;-2.16;100.00;102788.63;5055455;28;20075;-81
2024/01/20 05:34:39;;;;;;;46.13;22.88;;;;;;;-2.17;100.00;102802.06;5055277;28;20032;-85
2024/01/20 05:37:08;;;;;;;45.40;23.23;;;;;;;-2.57;100.00;102734.56;5055535;28;20021;-83
2024/01/20 05:39:36;;;;;;;46.45;24.80;;;;;;;-2.97;100.00;102676.41;5037548;28;20079;-83
2024/01/20 05:42:02;;;;;;;48.65;23.48;;;;;;;-2.91;100.00;102699.28;5055499;28;20017;-81
2024/01/20 05:44:28;;;;;;;45.78;23.42;;;;;;;-2.27;100.00;102792.56;5055525;28;20025;-81
2024/01/20 05:46:53;;;;;;;45.28;22.08;;;;;;;-2.26;100.00;102804.38;5055358;28;20028;-82
2024/01/20 05:49:18;;;;;;;45.00;22.75;;;;;;;-2.37;100.00;102786.44;5054875;28;20086;-81
2024/01/20 05:51:44;;;;;;;48.95;21.35;;;;;;;-2.40;100.00;102787.25;5055690;28;20438;-81
2024/01/20 05:54:09;;;;;;;41.28;21.38;;;;;;;-2.27;100.00;102811.13;5055059;28;20025;-81
2024/01/20 05:56:35;;;;;;;44.13;21.83;;;;;;;-2.57;100.00;102762.41;5055200;28;20079;-81
2024/01/20 05:59:00;;;;;;;42.25;21.60;;;;;;;-2.48;100.00;102780.31;5055103;28;20035;-82
2024/01/20 06:01:27;;;;;;;41.35;21.70;;;;;;;-2.45;100.00;102780.41;5055059;28;20020;-81
2024/01/20 06:04:10;;;;;;;44.00;21.17;;;;;;;-2.27;100.00;102802.69;5054975;28;20033;-82
2024/01/20 06:06:38;;;;;;;43.88;21.45;;;;;;;-2.86;100.00;102716.22;5054960;28;20496;-82
2024/01/20 06:09:03;;;;;;;42.78;20.75;;;;;;;-3.00;100.00;102696.56;5054986;28;20028;-81
2024/01/20 06:11:29;;;;;;;39.65;22.20;;;;;;;-3.27;100.00;102655.50;5054784;28;20029;-81
2024/01/20 06:14:00;;;;;;;42.47;21.17;;;;;;;-2.67;100.00;102764.72;5054973;28;20033;-82
2024/01/20 06:16:41;;;;;;;40.92;20.13;;;;;;;-3.70;100.00;102587.97;5039263;23;20048;-83
2024/01/20 06:19:07;;;;;;;40.60;22.02;;;;;;;-2.43;100.00;102814.16;5014948;28;20061;-82
2024/01/20 06:21:32;;;;;;;46.38;21.58;;;;;;;-2.40;100.00;102816.75;5014984;28;20068;-82
2024/01/20 06:24:04;;;;;;;43.55;21.55;;;;;;;-2.37;100.00;102817.66;5014985;28;20081;-81
2024/01/20 06:26:41;;;;;;;;;;;;;;;-2.34;100.00;102821.97;5015402;28;20030;-81
2024/01/20 06:29:22;;;;;;;40.80;20.55;;;;;;;-3.56;100.00;102624.50;5014730;28;19914;-81
2024/01/20 06:31:47;;;;;;;46.50;22.02;;;;;;;-2.42;100.00;102810.81;5014596;28;20030;-81
2024/01/20 06:34:15;;;;;;;40.90;21.70;;;;;;;-2.84;100.00;102737.38;5014723;28;20060;-81
2024/01/20 06:36:41;;;;;;;41.67;21.40;;;;;;;-3.08;100.00;102699.72;5014729;28;20018;-82
2024/01/20 06:39:14;;;;;;;41.20;21.38;;;;;;;-3.71;100.00;102592.16;5014670;28;20022;-81
2024/01/20 06:41:50;;;;;;;44.30;22.48;;;;;;;-3.59;100.00;102599.19;5013908;28;20424;-81
2024/01/20 06:44:22;;;;;;;43.50;22.02;;;;;;;-3.58;100.00;102606.78;5014537;28;20542;-81
2024/01/20 06:47:11;;;;;;;38.05;20.05;;;;;;;-2.27;100.00;102831.38;5069483;23;20052;-82
2024/01/20 06:49:49;;;;;;;39.80;22.10;;;;;;;-2.33;100.00;102831.25;5034565;28;20458;-82
2024/01/20 06:52:17;;;;;;;40.17;20.73;;;;;;;-3.38;100.00;102661.97;5034094;28;20485;-84
2024/01/20 06:54:43;;;;;;;40.70;20.40;;;;;;;-2.28;100.00;102844.00;5034202;28;20033;-82
2024/01/20 06:57:09;;;;;;;39.97;20.40;;;;;;;-3.26;100.00;102690.03;5033988;28;20420;-81
2024/01/20 06:59:54;;;;;;;37.78;20.67;;;;;;;-2.25;100.00;102844.94;5117473;23;20032;-81
2024/01/20 07:02:20;;;;;;;39.58;21.73;;;;;;;-2.98;100.00;102737.03;5040234;23;20057;-81
2024/01/20 07:04:45;;;;;;;46.88;21.40;;;;;;;-3.19;100.00;102692.75;5033655;28;20390;-83
2024/01/20 07:07:13;;;;;;;40.55;20.52;;;;;;;-3.13;100.00;102693.72;5015470;28;20029;-81
2024/01/20 07:09:40;;;;;;;39.47;21.02;;;;;;;-2.57;100.00;102795.28;5033603;28;20042;-79
2024/01/20 07:12:30;;;;;;;43.47;21.05;;;;;;;-2.21;100.00;102849.22;5033465;28;20069;-82
2024/01/20 07:15:07;;;;;;;38.65;20.70;;;;;;;-3.41;100.00;102642.53;5033440;28;20084;-81
2024/01/20 07:20:34;;;;;;;38.60;20.58;;;;;;;-2.68;100.00;102754.56;5032945;28;20065;-81
2024/01/20 07:23:12;;;;;;;43.72;21.20;;;;;;;-3.43;100.00;102623.13;5033440;28;20037;-80
2024/01/20 07:25:39;;;;;;;35.22;20.38;;;;;;;-2.92;100.00;102715.28;5033326;28;20029;-81
2024/01/20 07:31:26;;;;;;;36.42;20.90;;;;;;;-2.10;100.00;102844.41;5033135;28;20430;-81
2024/01/20 07:34:03;;;;;;;36.00;19.77;;;;;;;-2.13;100.00;102839.28;5032951;28;20025;-86
2024/01/20 07:36:38;;;;;;;45.22;21.42;;;;;;;-3.14;100.00;102679.38;5032817;28;20100;-82
2024/01/20 07:39:04;;;;;;;37.17;20.45;;;;;;;-2.97;100.00;102711.78;5033092;28;20204;-80
2024/01/20 07:41:30;;;;;;;37.47;20.27;;;;;;;-2.08;100.00;102851.19;5033059;28;20053;-80
2024/01/20 07:43:55;;;;;;;38.80;21.83;;;;;;;-3.22;100.00;102667.41;5033168;28;20493;-80
2024/01/20 07:46:21;;;;;;;36.72;21.80;;;;;;;-2.07;100.00;102862.19;5032994;28;20527;-82
2024/01/20 07:48:46;;;;;;;37.25;19.85;;;;;;;-2.04;100.00;102867.34;5033036;28;20080;-83
2024/01/20 07:51:11;;;;;;;36.85;19.60;;;;;;;-2.05;100.00;102863.94;5032840;28;20029;-81
2024/01/20 07:53:37;;;;;;;36.58;19.25;;;;;;;-2.04;100.00;102869.88;5031958;28;20115;-81
2024/01/20 07:56:02;;;;;;;34.33;18.30;;;;;;;-2.61;100.00;102779.19;5032771;28;20032;-81
2024/01/20 07:58:36;;;;;;;38.50;20.35;;;;;;;-2.12;100.00;102851.97;5032698;28;20429;-80
2024/01/20 08:01:02;;;;;;;35.47;20.40;;;;;;;-2.80;100.00;102739.97;5031223;28;20461;-80
2024/01/20 08:03:28;;;;;;;38.20;20.33;;;;;;;-2.96;100.00;102716.00;5032633;28;20036;-80
2024/01/20 08:06:03;;;;;;;36.63;19.58;;;;;;;-2.88;100.00;102728.84;5032697;28;20101;-80
2024/01/20 08:08:28;;;;;;;36.35;19.98;;;;;;;-2.72;100.00;102745.22;5032714;28;20076;-79
2024/01/20 08:13:35;;;;;;;37.92;19.77;;;;;;;-3.09;100.00;102678.66;5340968;23;20591;-80
2024/01/20 08:16:00;;;;;;;;;;;;;;;-1.80;100.00;102883.03;5032975;28;20108;-78
2024/01/20 08:18:25;;;;;;;35.85;19.80;;;;;;;-2.34;100.00;102800.03;5032429;28;19985;-79
2024/01/20 08:20:53;;;;;;;37.90;20.25;;;;;;;-2.11;100.00;102832.56;5014776;28;20037;-79
2024/01/20 08:23:19;;;;;;;36.38;20.20;;;;;;;-1.75;100.00;102888.22;5032419;28;20393;-79
2024/01/20 08:25:44;;;;;;;34.63;20.77;;;;;;;-1.76;100.00;102889.88;5032479;28;20029;-78
2024/01/20 08:28:09;;;;;;;35.83;19.90;;;;;;;-2.03;100.00;102856.38;5031141;28;20041;-78
2024/01/20 08:30:35;;;;;;;35.97;19.98;;;;;;;-1.85;100.00;102883.78;5032510;28;20026;-79
2024/01/20 08:33:00;;;;;;;33.08;18.90;;;;;;;-1.72;100.00;102898.41;5031999;28;20039;-79
2024/01/20 08:35:25;;;;;;;35.38;18.45;;;;;;;-1.68;100.00;102904.38;5032083;28;20104;-81
2024/01/20 08:37:51;;;;;;;32.92;17.80;;;;;;;-1.82;100.00;102887.22;5030166;28;20037;-81
2024/01/20 08:40:16;;;;;;;32.92;18.00;;;;;;;-1.62;100.00;102909.56;5032692;28;20033;-80
2024/01/20 08:42:42;;;;;;;38.03;19.17;;;;;;;-1.78;100.00;102872.94;5032510;28;20030;-80
2024/01/20 08:45:08;;;;;;;37.45;19.63;;;;;;;-1.78;100.00;102851.00;5032466;28;20018;-81
2024/01/20 08:47:33;;;;;;;35.22;21.23;;;;;;;-2.03;100.00;102798.16;5032412;28;20053;-81
2024/01/20 08:49:58;;;;;;;31.65;17.92;;;;;;;-1.37;100.00;102911.78;5031924;28;20558;-81
2024/01/20 08:52:24;;;;;;;30.88;17.52;;;;;;;-1.54;100.00;102881.03;5031867;28;20435;-81
2024/01/20 08:54:49;;;;;;;36.78;19.88;;;;;;;-1.60;100.00;102859.78;5032539;28;20021;-80
2024/01/20 08:57:25;;;;;;;32.15;19.35;;;;;;;-1.32;100.00;102877.25;5032263;28;20388;-79
2024/01/20 08:59:50;;;;;;;34.20;17.48;;;;;;;-1.61;100.00;102820.09;5030216;28;20091;-81
2024/01/20 09:02:25;;;;;;;29.92;18.42;;;;;;;-1.39;100.00;102844.13;5032177;28;20408;-81
2024/01/20 09:04:50;;;;;;;30.75;18.17;;;;;;;-1.30;100.00;102850.22;5032711;28;20080;-80
2024/01/20 09:07:15;;;;;;;33.60;18.83;;;;;;;-0.94;100.00;102910.91;5036087;28;20025;-80
2024/01/20 09:09:41;;;;;;;36.03;21.92;;;;;;;-1.33;100.00;102849.34;5043642;28;20067;-81
2024/01/20 09:12:09;;;;;;;36.50;22.23;;;;;;;-2.22;100.00;102726.06;5065835;23;20075;-85
2024/01/20 09:14:40;;;;;;;33.20;19.35;;;;;;;-1.82;100.00;102793.53;5036374;28;20029;-84
2024/01/20 09:17:06;;;;;;;31.40;18.45;;;;;;;-1.31;100.00;102896.69;5035811;28;20017;-81
2024/01/20 09:19:32;;;;;;;32.28;18.10;;;;;;;-2.11;100.00;102760.03;5035494;28;20101;-81
2024/01/20 09:22:12;;;;;;;29.73;17.98;;;;;;;-2.41;100.00;102712.16;5035990;28;20029;-78
2024/01/20 09:24:45;;;;;;;29.35;17.70;;;;;;;-2.46;100.00;102728.06;5035925;28;20121;-80
2024/01/20 09:27:29;;;;;;;33.40;18.42;;;;;;;-1.66;100.00;102857.16;5035736;28;20033;-83
2024/01/20 09:30:05;;;;;;;31.85;18.50;;;;;;;-1.16;100.00;102937.56;5035124;28;20084;-81
2024/01/20 09:32:42;;;;;;;33.65;19.00;;;;;;;-2.31;100.00;102710.69;5035463;28;20037;-79
2024/01/20 09:35:23;;;;;;;32.85;18.88;;;;;;;-1.96;100.00;102764.56;5017479;28;20384;-80
2024/01/20 09:37:48;;;;;;;31.87;18.47;;;;;;;-0.95;100.00;102928.63;5035814;28;20485;-81
2024/01/20 09:40:17;;;;;;;30.98;18.17;;;;;;;-2.15;100.00;102727.03;5085641;23;20053;-81
2024/01/20 09:42:54;;;;;;;31.48;18.30;;;;;;;-0.88;100.00;102930.47;5035093;28;20508;-83
2024/01/20 09:45:20;;;;;;;30.25;18.30;;;;;;;-1.48;100.00;102830.47;5139312;23;20056;-84
2024/01/20 09:47:54;;;;;;;29.33;17.92;;;;;;;-0.83;100.00;102939.00;5034964;28;20392;-81
2024/01/20 09:50:20;;;;;;;30.85;18.17;;;;;;;-1.62;100.00;102818.38;5034863;28;20052;-82
2024/01/20 09:53:12;;;;;;;27.98;16.98;;;;;;;-1.80;100.00;102778.34;5016929;28;20075;-82
2024/01/20 09:59:02;;;;;;;27.90;16.60;;;;;;;-1.10;100.00;102892.84;5034922;28;20040;-79
2024/01/20 10:01:29;;;;;;;31.38;17.38;;;;;;;-0.70;100.00;102935.84;5041275;23;20069;-83
2024/01/20 10:04:00;;;;;;;28.33;17.73;;;;;;;-0.61;100.00;102957.97;5034823;28;20025;-80
2024/01/20 10:06:26;;;;;;;27.50;17.02;;;;;;;-0.73;100.00;102927.31;5034848;28;20026;-83
2024/01/20 10:08:52;;;;;;;30.38;17.27;;;;;;;-0.51;100.00;102954.78;5033578;28;20072;-83
2024/01/20 10:11:17;;;;;;;31.02;17.70;;;;;;;-0.59;100.00;102943.63;5034653;28;20079;-80
2024/01/20 10:13:42;;;;;;;30.67;17.38;;;;;;;-0.60;100.00;102930.09;5034396;28;20033;-81
2024/01/20 10:16:08;;;;;;;30.27;17.50;;;;;;;-0.61;100.00;102937.69;5033506;28;20032;-83
2024/01/20 10:18:33;;;;;;;29.20;17.02;;;;;;;-0.51;100.00;102954.78;5034290;28;20426;-82
2024/01/20 10:21:06;;;;;;;28.58;17.52;;;;;;;-0.53;100.00;102951.34;5034149;28;20030;-82
2024/01/20 10:23:36;;;;;;;29.23;18.00;;;;;;;-1.00;100.00;102862.59;5040797;23;20464;-82
2024/01/20 10:26:06;;;;;;;30.73;17.23;;;;;;;-1.43;100.00;102825.50;5034250;28;20061;-83
2024/01/20 10:28:32;;;;;;;29.35;17.25;;;;;;;-1.86;100.00;102753.78;5034082;28;20484;-81
2024/01/20 10:31:08;;;;;;;28.05;17.05;;;;;;;-0.47;100.00;102979.38;5016379;28;20037;-82
2024/01/20 10:33:34;;;;;;;30.17;18.05;;;;;;;-0.47;100.00;102963.31;5015913;28;20036;-78
2024/01/20 10:36:01;;;;;;;28.60;17.55;;;;;;;-0.39;100.00;102964.28;5034130;28;20029;-83
2024/01/20 10:38:28;;;;;;;27.05;15.90;;;;;;;-0.24;100.00;102966.22;5034085;28;20539;-83
2024/01/20 10:40:55;;;;;;;27.80;16.63;;;;;;;-0.54;100.00;102898.91;5033925;28;20033;-83
2024/01/20 10:46:36;;;;;;;27.92;16.10;;;;;;;-1.34;100.00;102753.88;5038449;23;20057;-86
2024/01/20 10:49:07;;;;;;;28.40;17.77;;;;;;;-1.26;100.00;102760.78;5034198;28;20112;-79
2024/01/20 10:51:34;;;;;;;27.40;16.85;;;;;;;-0.46;100.00;102892.25;5033821;28;20029;-83
2024/01/20 10:54:06;;;;;;;25.63;16.00;;;;;;;-0.06;100.00;102943.66;5033721;28;20477;-82
2024/01/20 10:56:32;;;;;;;;;;;;;;;0.20;100.00;102966.91;5034231;28;20032;-84
2024/01/20 10:59:12;;;;;;;27.60;16.63;;;;;;;0.03;100.00;102945.47;5033840;28;19913;-81
2024/01/20 11:01:41;;;;;;;28.17;17.27;;;;;;;-0.20;100.00;102876.56;5033814;28;20393;-83
2024/01/20 11:04:19;;;;;;;33.80;19.05;;;;;;;-0.88;100.00;102728.41;5033780;28;20105;-84
2024/01/20 11:06:45;;;;;;;25.65;16.48;;;;;;;-0.18;100.00;102786.06;5046880;23;20049;-90
2024/01/20 11:09:25;;;;;;;28.48;17.13;;;;;;;0.08;100.00;102797.38;5049207;28;20103;-86
2024/01/20 11:15:17;;;;;;;23.45;14.73;;;;;;;-0.25;100.00;102741.94;5049286;23;20106;-85
2024/01/20 11:21:04;;;;;;;25.88;16.17;;;;;;;-0.38;100.00;102763.78;5033151;28;20205;-86
2024/01/20 11:23:30;;;;;;;24.13;15.30;;;;;;;0.56;100.00;102946.19;5033370;28;20544;-85
2024/01/20 11:25:57;;;;;;;22.65;14.00;;;;;;;-0.53;100.00;102777.94;5031817;28;20116;-85
2024/01/20 11:31:20;;;;;;;24.48;14.07;;;;;;;0.58;100.00;102940.28;5062881;23;20049;-87
2024/01/20 11:33:45;;;;;;;22.92;14.30;;;;;;;-0.31;100.00;102765.56;5016669;28;20389;-87